sensor_id;sensor_type;location;lat;lon;timestamp;P1;durP1;ratioP1;P2;durP2;ratioP2
18544;SDS011;9402;51.460;7.276;2024-02-26T00:01:23;5.82;;;1.75;;
18544;SDS011;9402;51.460;7.276;2024-02-26T00:03:26;1.92;;;1.52;;
18544;SDS011;9402;51.460;7.276;2024-02-26T00:05:27;2.58;;;2.15;;
18544;SDS011;9402;51.460;7.276;2024-02-26T00:07:29;1.67;;;1.58;;
18544;SDS011;9402;51.460;7.276;2024-02-26T00:09:29;1.63;;;1.50;;
18544;SDS011;9402;51.460;7.276;2024-02-26T00:11:31;2.65;;;1.90;;
18544;SDS011;9402;51.460;7.276;2024-02-26T00:13:33;3.67;;;1.83;;
18544;SDS011;9402;51.460;7.276;2024-02-26T00:15:34;4.03;;;2.15;;
18544;SDS011;9402;51.460;7.276;2024-02-26T00:17:36;1.60;;;1.50;;
18544;SDS011;9402;51.460;7.276;2024-02-26T00:19:39;1.65;;;1.55;;
18544;SDS011;9402;51.460;7.276;2024-02-26T00:21:40;3.53;;;1.70;;
18544;SDS011;9402;51.460;7.276;2024-02-26T00:23:42;1.60;;;1.50;;
18544;SDS011;9402;51.460;7.276;2024-02-26T00:25:43;4.07;;;1.60;;
18544;SDS011;9402;51.460;7.276;2024-02-26T00:27:45;1.90;;;1.70;;
18544;SDS011;9402;51.460;7.276;2024-02-26T00:29:46;3.90;;;1.65;;
18544;SDS011;9402;51.460;7.276;2024-02-26T00:31:48;3.85;;;1.67;;
18544;SDS011;9402;51.460;7.276;2024-02-26T00:33:49;2.22;;;2.03;;
18544;SDS011;9402;51.460;7.276;2024-02-26T00:35:52;8.95;;;2.08;;
18544;SDS011;9402;51.460;7.276;2024-02-26T00:37:54;3.72;;;1.90;;
18544;SDS011;9402;51.460;7.276;2024-02-26T00:39:55;3.20;;;2.00;;
18544;SDS011;9402;51.460;7.276;2024-02-26T00:41:56;1.90;;;1.57;;
18544;SDS011;9402;51.460;7.276;2024-02-26T00:43:58;3.03;;;1.65;;
18544;SDS011;9402;51.460;7.276;2024-02-26T00:46:00;2.33;;;1.80;;
18544;SDS011;9402;51.460;7.276;2024-02-26T00:48:02;2.30;;;1.75;;
18544;SDS011;9402;51.460;7.276;2024-02-26T00:50:05;2.53;;;1.90;;
18544;SDS011;9402;51.460;7.276;2024-02-26T00:52:09;3.60;;;1.80;;
18544;SDS011;9402;51.460;7.276;2024-02-26T00:54:11;3.85;;;1.98;;
18544;SDS011;9402;51.460;7.276;2024-02-26T00:56:12;2.65;;;1.52;;
18544;SDS011;9402;51.460;7.276;2024-02-26T00:58:14;2.55;;;1.70;;
18544;SDS011;9402;51.460;7.276;2024-02-26T01:00:15;2.80;;;2.10;;
18544;SDS011;9402;51.460;7.276;2024-02-26T01:02:17;3.20;;;2.15;;
18544;SDS011;9402;51.460;7.276;2024-02-26T01:04:18;4.40;;;1.50;;
18544;SDS011;9402;51.460;7.276;2024-02-26T01:06:19;1.70;;;1.60;;
18544;SDS011;9402;51.460;7.276;2024-02-26T01:08:21;3.87;;;1.80;;
18544;SDS011;9402;51.460;7.276;2024-02-26T01:10:23;1.95;;;1.60;;
18544;SDS011;9402;51.460;7.276;2024-02-26T01:12:24;2.03;;;1.85;;
18544;SDS011;9402;51.460;7.276;2024-02-26T01:14:26;2.63;;;1.63;;
18544;SDS011;9402;51.460;7.276;2024-02-26T01:16:27;2.05;;;1.85;;
18544;SDS011;9402;51.460;7.276;2024-02-26T01:18:31;3.03;;;1.65;;
18544;SDS011;9402;51.460;7.276;2024-02-26T01:20:32;2.60;;;1.88;;
18544;SDS011;9402;51.460;7.276;2024-02-26T01:22:34;3.95;;;2.05;;
18544;SDS011;9402;51.460;7.276;2024-02-26T01:24:37;2.65;;;1.60;;
18544;SDS011;9402;51.460;7.276;2024-02-26T01:26:38;2.60;;;2.05;;
18544;SDS011;9402;51.460;7.276;2024-02-26T01:28:40;3.45;;;2.55;;
18544;SDS011;9402;51.460;7.276;2024-02-26T01:30:42;4.70;;;1.88;;
18544;SDS011;9402;51.460;7.276;2024-02-26T01:32:43;5.20;;;2.17;;
18544;SDS011;9402;51.460;7.276;2024-02-26T01:34:45;2.47;;;1.92;;
18544;SDS011;9402;51.460;7.276;2024-02-26T01:36:47;3.63;;;2.20;;
18544;SDS011;9402;51.460;7.276;2024-02-26T01:38:49;2.25;;;1.65;;
18544;SDS011;9402;51.460;7.276;2024-02-26T01:40:52;2.67;;;2.22;;
18544;SDS011;9402;51.460;7.276;2024-02-26T01:42:53;5.03;;;2.17;;
18544;SDS011;9402;51.460;7.276;2024-02-26T01:44:55;5.10;;;2.05;;
18544;SDS011;9402;51.460;7.276;2024-02-26T01:46:57;4.88;;;1.95;;
18544;SDS011;9402;51.460;7.276;2024-02-26T01:48:58;2.95;;;2.40;;
18544;SDS011;9402;51.460;7.276;2024-02-26T01:51:00;2.75;;;1.65;;
18544;SDS011;9402;51.460;7.276;2024-02-26T01:53:02;5.70;;;2.10;;
18544;SDS011;9402;51.460;7.276;2024-02-26T01:55:04;2.22;;;1.80;;
18544;SDS011;9402;51.460;7.276;2024-02-26T01:57:07;3.47;;;1.73;;
18544;SDS011;9402;51.460;7.276;2024-02-26T01:59:10;4.22;;;2.08;;
18544;SDS011;9402;51.460;7.276;2024-02-26T02:01:11;8.70;;;1.80;;
18544;SDS011;9402;51.460;7.276;2024-02-26T02:03:13;2.92;;;2.05;;
18544;SDS011;9402;51.460;7.276;2024-02-26T02:05:15;2.28;;;2.00;;
18544;SDS011;9402;51.460;7.276;2024-02-26T02:07:17;2.67;;;1.95;;
18544;SDS011;9402;51.460;7.276;2024-02-26T02:09:19;3.50;;;1.83;;
18544;SDS011;9402;51.460;7.276;2024-02-26T02:11:22;2.30;;;2.05;;
18544;SDS011;9402;51.460;7.276;2024-02-26T02:13:25;1.70;;;1.60;;
18544;SDS011;9402;51.460;7.276;2024-02-26T02:15:27;4.13;;;1.70;;
18544;SDS011;9402;51.460;7.276;2024-02-26T02:17:28;2.38;;;1.67;;
18544;SDS011;9402;51.460;7.276;2024-02-26T02:19:30;1.52;;;1.42;;
18544;SDS011;9402;51.460;7.276;2024-02-26T02:21:33;2.40;;;1.90;;
18544;SDS011;9402;51.460;7.276;2024-02-26T02:23:34;1.80;;;1.70;;
18544;SDS011;9402;51.460;7.276;2024-02-26T02:25:36;3.15;;;1.92;;
18544;SDS011;9402;51.460;7.276;2024-02-26T02:27:37;1.85;;;1.70;;
18544;SDS011;9402;51.460;7.276;2024-02-26T02:29:39;3.90;;;2.05;;
18544;SDS011;9402;51.460;7.276;2024-02-26T02:31:39;2.20;;;1.37;;
18544;SDS011;9402;51.460;7.276;2024-02-26T02:33:41;1.92;;;1.60;;
18544;SDS011;9402;51.460;7.276;2024-02-26T02:35:43;2.75;;;1.70;;
18544;SDS011;9402;51.460;7.276;2024-02-26T02:37:45;2.00;;;1.70;;
18544;SDS011;9402;51.460;7.276;2024-02-26T02:39:47;1.90;;;1.73;;
18544;SDS011;9402;51.460;7.276;2024-02-26T02:41:48;1.85;;;1.50;;
18544;SDS011;9402;51.460;7.276;2024-02-26T02:43:49;2.40;;;1.60;;
18544;SDS011;9402;51.460;7.276;2024-02-26T02:45:50;1.50;;;1.40;;
18544;SDS011;9402;51.460;7.276;2024-02-26T02:47:52;2.22;;;1.30;;
18544;SDS011;9402;51.460;7.276;2024-02-26T02:49:53;2.95;;;1.58;;
18544;SDS011;9402;51.460;7.276;2024-02-26T02:51:55;2.75;;;1.50;;
18544;SDS011;9402;51.460;7.276;2024-02-26T02:53:59;4.03;;;1.20;;
18544;SDS011;9402;51.460;7.276;2024-02-26T02:56:00;1.70;;;1.25;;
18544;SDS011;9402;51.460;7.276;2024-02-26T02:58:02;1.42;;;1.33;;
18544;SDS011;9402;51.460;7.276;2024-02-26T03:00:04;2.47;;;1.52;;
18544;SDS011;9402;51.460;7.276;2024-02-26T03:02:07;2.60;;;1.50;;
18544;SDS011;9402;51.460;7.276;2024-02-26T03:04:08;1.90;;;1.58;;
18544;SDS011;9402;51.460;7.276;2024-02-26T03:06:10;1.92;;;1.60;;
18544;SDS011;9402;51.460;7.276;2024-02-26T03:08:11;2.23;;;1.37;;
18544;SDS011;9402;51.460;7.276;2024-02-26T03:10:14;1.60;;;1.42;;
18544;SDS011;9402;51.460;7.276;2024-02-26T03:12:14;3.35;;;1.80;;
18544;SDS011;9402;51.460;7.276;2024-02-26T03:14:16;1.17;;;1.08;;
18544;SDS011;9402;51.460;7.276;2024-02-26T03:16:17;1.83;;;1.40;;
18544;SDS011;9402;51.460;7.276;2024-02-26T03:18:19;3.35;;;1.40;;
18544;SDS011;9402;51.460;7.276;2024-02-26T03:20:21;3.28;;;1.33;;
18544;SDS011;9402;51.460;7.276;2024-02-26T03:22:23;1.75;;;1.23;;
18544;SDS011;9402;51.460;7.276;2024-02-26T03:24:23;1.20;;;1.00;;
18544;SDS011;9402;51.460;7.276;2024-02-26T03:26:26;1.63;;;1.35;;
18544;SDS011;9402;51.460;7.276;2024-02-26T03:28:28;3.50;;;1.60;;
18544;SDS011;9402;51.460;7.276;2024-02-26T03:30:30;1.30;;;1.20;;
18544;SDS011;9402;51.460;7.276;2024-02-26T03:32:32;3.22;;;1.60;;
18544;SDS011;9402;51.460;7.276;2024-02-26T03:34:34;2.05;;;1.38;;
18544;SDS011;9402;51.460;7.276;2024-02-26T03:36:35;3.45;;;1.30;;
18544;SDS011;9402;51.460;7.276;2024-02-26T03:38:37;3.80;;;1.55;;
18544;SDS011;9402;51.460;7.276;2024-02-26T03:40:39;2.97;;;2.00;;
18544;SDS011;9402;51.460;7.276;2024-02-26T03:42:42;2.33;;;1.58;;
18544;SDS011;9402;51.460;7.276;2024-02-26T03:44:43;3.92;;;1.65;;
18544;SDS011;9402;51.460;7.276;2024-02-26T03:46:44;2.00;;;1.60;;
18544;SDS011;9402;51.460;7.276;2024-02-26T03:48:45;1.60;;;1.50;;
18544;SDS011;9402;51.460;7.276;2024-02-26T03:50:47;2.20;;;1.75;;
18544;SDS011;9402;51.460;7.276;2024-02-26T03:52:48;1.73;;;1.60;;
18544;SDS011;9402;51.460;7.276;2024-02-26T03:54:49;2.38;;;1.85;;
18544;SDS011;9402;51.460;7.276;2024-02-26T03:56:51;1.92;;;1.80;;
18544;SDS011;9402;51.460;7.276;2024-02-26T03:58:54;4.07;;;2.53;;
18544;SDS011;9402;51.460;7.276;2024-02-26T04:00:55;4.38;;;3.30;;
18544;SDS011;9402;51.460;7.276;2024-02-26T04:02:57;1.80;;;1.70;;
18544;SDS011;9402;51.460;7.276;2024-02-26T04:04:58;2.80;;;2.58;;
18544;SDS011;9402;51.460;7.276;2024-02-26T04:07:00;3.85;;;1.98;;
18544;SDS011;9402;51.460;7.276;2024-02-26T04:09:02;2.15;;;2.00;;
18544;SDS011;9402;51.460;7.276;2024-02-26T04:11:04;5.05;;;1.98;;
18544;SDS011;9402;51.460;7.276;2024-02-26T04:13:07;2.30;;;2.20;;
18544;SDS011;9402;51.460;7.276;2024-02-26T04:15:10;3.17;;;2.40;;
18544;SDS011;9402;51.460;7.276;2024-02-26T04:17:12;2.50;;;2.30;;
18544;SDS011;9402;51.460;7.276;2024-02-26T04:19:12;5.63;;;2.00;;
18544;SDS011;9402;51.460;7.276;2024-02-26T04:21:14;3.88;;;2.42;;
18544;SDS011;9402;51.460;7.276;2024-02-26T04:23:14;2.90;;;2.23;;
18544;SDS011;9402;51.460;7.276;2024-02-26T04:25:16;3.88;;;2.60;;
18544;SDS011;9402;51.460;7.276;2024-02-26T04:27:18;5.45;;;2.40;;
18544;SDS011;9402;51.460;7.276;2024-02-26T04:29:19;6.57;;;2.55;;
18544;SDS011;9402;51.460;7.276;2024-02-26T04:31:22;4.53;;;2.28;;
18544;SDS011;9402;51.460;7.276;2024-02-26T04:33:24;3.58;;;2.10;;
18544;SDS011;9402;51.460;7.276;2024-02-26T04:35:25;3.53;;;2.50;;
18544;SDS011;9402;51.460;7.276;2024-02-26T04:37:27;4.20;;;2.50;;
18544;SDS011;9402;51.460;7.276;2024-02-26T04:39:30;3.67;;;3.38;;
18544;SDS011;9402;51.460;7.276;2024-02-26T04:41:32;3.13;;;2.70;;
18544;SDS011;9402;51.460;7.276;2024-02-26T04:43:34;3.90;;;2.30;;
18544;SDS011;9402;51.460;7.276;2024-02-26T04:45:41;5.63;;;3.33;;
18544;SDS011;9402;51.460;7.276;2024-02-26T04:47:44;3.63;;;3.17;;
18544;SDS011;9402;51.460;7.276;2024-02-26T04:49:44;4.47;;;3.17;;
18544;SDS011;9402;51.460;7.276;2024-02-26T04:51:46;6.35;;;2.90;;
18544;SDS011;9402;51.460;7.276;2024-02-26T04:53:48;8.50;;;3.17;;
18544;SDS011;9402;51.460;7.276;2024-02-26T04:55:50;3.65;;;2.85;;
18544;SDS011;9402;51.460;7.276;2024-02-26T04:57:54;3.30;;;2.80;;
18544;SDS011;9402;51.460;7.276;2024-02-26T04:59:56;10.35;;;2.50;;
18544;SDS011;9402;51.460;7.276;2024-02-26T05:01:57;3.43;;;2.93;;
18544;SDS011;9402;51.460;7.276;2024-02-26T05:03:59;4.93;;;3.42;;
18544;SDS011;9402;51.460;7.276;2024-02-26T05:06:01;5.93;;;3.15;;
18544;SDS011;9402;51.460;7.276;2024-02-26T05:08:03;6.32;;;2.67;;
18544;SDS011;9402;51.460;7.276;2024-02-26T05:10:05;3.05;;;2.67;;
18544;SDS011;9402;51.460;7.276;2024-02-26T05:12:08;4.10;;;2.80;;
18544;SDS011;9402;51.460;7.276;2024-02-26T05:14:09;4.43;;;3.30;;
18544;SDS011;9402;51.460;7.276;2024-02-26T05:16:10;4.00;;;3.10;;
18544;SDS011;9402;51.460;7.276;2024-02-26T05:18:12;2.45;;;2.25;;
18544;SDS011;9402;51.460;7.276;2024-02-26T05:20:15;5.43;;;3.30;;
18544;SDS011;9402;51.460;7.276;2024-02-26T05:22:16;3.53;;;2.97;;
18544;SDS011;9402;51.460;7.276;2024-02-26T05:24:18;2.63;;;2.25;;
18544;SDS011;9402;51.460;7.276;2024-02-26T05:26:22;3.20;;;2.90;;
18544;SDS011;9402;51.460;7.276;2024-02-26T05:28:24;3.78;;;2.30;;
18544;SDS011;9402;51.460;7.276;2024-02-26T05:30:25;7.75;;;2.75;;
18544;SDS011;9402;51.460;7.276;2024-02-26T05:32:28;8.60;;;3.97;;
18544;SDS011;9402;51.460;7.276;2024-02-26T05:34:30;4.95;;;2.50;;
18544;SDS011;9402;51.460;7.276;2024-02-26T05:36:33;6.63;;;3.10;;
18544;SDS011;9402;51.460;7.276;2024-02-26T05:38:34;4.85;;;3.53;;
18544;SDS011;9402;51.460;7.276;2024-02-26T05:40:35;13.35;;;4.07;;
18544;SDS011;9402;51.460;7.276;2024-02-26T05:42:38;5.50;;;3.55;;
18544;SDS011;9402;51.460;7.276;2024-02-26T05:44:40;6.80;;;3.80;;
18544;SDS011;9402;51.460;7.276;2024-02-26T05:46:41;6.03;;;3.88;;
18544;SDS011;9402;51.460;7.276;2024-02-26T05:48:42;4.93;;;3.77;;
18544;SDS011;9402;51.460;7.276;2024-02-26T05:50:43;7.25;;;3.92;;
18544;SDS011;9402;51.460;7.276;2024-02-26T05:52:46;5.90;;;3.45;;
18544;SDS011;9402;51.460;7.276;2024-02-26T05:54:48;8.65;;;3.90;;
18544;SDS011;9402;51.460;7.276;2024-02-26T05:56:49;5.88;;;2.88;;
18544;SDS011;9402;51.460;7.276;2024-02-26T05:58:52;4.28;;;3.88;;
18544;SDS011;9402;51.460;7.276;2024-02-26T06:00:53;3.20;;;2.90;;
18544;SDS011;9402;51.460;7.276;2024-02-26T06:02:54;4.38;;;3.80;;
18544;SDS011;9402;51.460;7.276;2024-02-26T06:04:56;4.90;;;3.90;;
18544;SDS011;9402;51.460;7.276;2024-02-26T06:06:58;7.75;;;4.07;;
18544;SDS011;9402;51.460;7.276;2024-02-26T06:09:00;5.43;;;3.97;;
18544;SDS011;9402;51.460;7.276;2024-02-26T06:11:05;6.20;;;3.60;;
18544;SDS011;9402;51.460;7.276;2024-02-26T06:13:07;6.82;;;3.85;;
18544;SDS011;9402;51.460;7.276;2024-02-26T06:15:09;5.43;;;3.85;;
18544;SDS011;9402;51.460;7.276;2024-02-26T06:17:12;4.88;;;3.97;;
18544;SDS011;9402;51.460;7.276;2024-02-26T06:19:13;7.95;;;3.85;;
18544;SDS011;9402;51.460;7.276;2024-02-26T06:21:15;4.68;;;3.65;;
18544;SDS011;9402;51.460;7.276;2024-02-26T06:23:16;8.45;;;4.20;;
18544;SDS011;9402;51.460;7.276;2024-02-26T06:25:19;4.78;;;4.40;;
18544;SDS011;9402;51.460;7.276;2024-02-26T06:27:21;7.03;;;4.07;;
18544;SDS011;9402;51.460;7.276;2024-02-26T06:29:22;6.82;;;4.22;;
18544;SDS011;9402;51.460;7.276;2024-02-26T06:31:24;7.03;;;4.75;;
18544;SDS011;9402;51.460;7.276;2024-02-26T06:33:27;5.80;;;4.22;;
18544;SDS011;9402;51.460;7.276;2024-02-26T06:35:29;5.05;;;4.55;;
18544;SDS011;9402;51.460;7.276;2024-02-26T06:37:30;7.53;;;5.00;;
18544;SDS011;9402;51.460;7.276;2024-02-26T06:39:32;5.88;;;4.72;;
18544;SDS011;9402;51.460;7.276;2024-02-26T06:41:35;5.43;;;4.43;;
18544;SDS011;9402;51.460;7.276;2024-02-26T06:43:38;4.43;;;4.03;;
18544;SDS011;9402;51.460;7.276;2024-02-26T06:45:40;7.90;;;4.78;;
18544;SDS011;9402;51.460;7.276;2024-02-26T06:47:42;6.68;;;5.18;;
18544;SDS011;9402;51.460;7.276;2024-02-26T06:49:43;7.40;;;5.30;;
18544;SDS011;9402;51.460;7.276;2024-02-26T06:51:45;7.57;;;5.07;;
18544;SDS011;9402;51.460;7.276;2024-02-26T06:53:46;6.13;;;5.53;;
18544;SDS011;9402;51.460;7.276;2024-02-26T06:55:47;6.60;;;4.30;;
18544;SDS011;9402;51.460;7.276;2024-02-26T06:57:51;6.25;;;5.00;;
18544;SDS011;9402;51.460;7.276;2024-02-26T06:59:53;4.40;;;4.00;;
18544;SDS011;9402;51.460;7.276;2024-02-26T07:01:54;6.72;;;5.05;;
18544;SDS011;9402;51.460;7.276;2024-02-26T07:03:56;4.53;;;4.05;;
18544;SDS011;9402;51.460;7.276;2024-02-26T07:05:58;5.80;;;3.90;;
18544;SDS011;9402;51.460;7.276;2024-02-26T07:07:59;5.63;;;3.75;;
18544;SDS011;9402;51.460;7.276;2024-02-26T07:10:01;4.68;;;3.63;;
18544;SDS011;9402;51.460;7.276;2024-02-26T07:12:03;5.60;;;4.97;;
18544;SDS011;9402;51.460;7.276;2024-02-26T07:14:07;5.60;;;5.10;;
18544;SDS011;9402;51.460;7.276;2024-02-26T07:16:08;7.50;;;4.80;;
18544;SDS011;9402;51.460;7.276;2024-02-26T07:18:10;10.68;;;4.47;;
18544;SDS011;9402;51.460;7.276;2024-02-26T07:20:11;5.55;;;4.70;;
18544;SDS011;9402;51.460;7.276;2024-02-26T07:22:13;6.60;;;4.85;;
18544;SDS011;9402;51.460;7.276;2024-02-26T07:24:15;13.10;;;5.05;;
18544;SDS011;9402;51.460;7.276;2024-02-26T07:26:16;7.80;;;5.53;;
18544;SDS011;9402;51.460;7.276;2024-02-26T07:28:19;5.63;;;3.80;;
18544;SDS011;9402;51.460;7.276;2024-02-26T07:30:22;7.57;;;5.35;;
18544;SDS011;9402;51.460;7.276;2024-02-26T07:32:24;7.93;;;5.47;;
18544;SDS011;9402;51.460;7.276;2024-02-26T07:34:26;8.27;;;4.88;;
18544;SDS011;9402;51.460;7.276;2024-02-26T07:36:29;5.68;;;3.70;;
18544;SDS011;9402;51.460;7.276;2024-02-26T07:38:30;5.43;;;4.72;;
18544;SDS011;9402;51.460;7.276;2024-02-26T07:40:32;7.13;;;4.57;;
18544;SDS011;9402;51.460;7.276;2024-02-26T07:42:34;5.93;;;5.20;;
18544;SDS011;9402;51.460;7.276;2024-02-26T07:44:35;5.70;;;5.20;;
18544;SDS011;9402;51.460;7.276;2024-02-26T07:46:38;6.97;;;5.32;;
18544;SDS011;9402;51.460;7.276;2024-02-26T07:48:40;8.35;;;5.70;;
18544;SDS011;9402;51.460;7.276;2024-02-26T07:50:42;5.95;;;4.13;;
18544;SDS011;9402;51.460;7.276;2024-02-26T07:52:43;14.27;;;4.65;;
18544;SDS011;9402;51.460;7.276;2024-02-26T07:54:45;4.00;;;3.70;;
18544;SDS011;9402;51.460;7.276;2024-02-26T07:56:47;11.60;;;4.90;;
18544;SDS011;9402;51.460;7.276;2024-02-26T07:58:48;6.20;;;5.00;;
18544;SDS011;9402;51.460;7.276;2024-02-26T08:00:50;6.95;;;5.35;;
18544;SDS011;9402;51.460;7.276;2024-02-26T08:02:53;6.40;;;5.80;;
18544;SDS011;9402;51.460;7.276;2024-02-26T08:04:55;12.85;;;6.22;;
18544;SDS011;9402;51.460;7.276;2024-02-26T08:06:56;11.70;;;5.22;;
18544;SDS011;9402;51.460;7.276;2024-02-26T08:08:58;7.88;;;5.45;;
18544;SDS011;9402;51.460;7.276;2024-02-26T08:10:59;5.82;;;3.67;;
18544;SDS011;9402;51.460;7.276;2024-02-26T08:13:01;7.32;;;5.05;;
18544;SDS011;9402;51.460;7.276;2024-02-26T08:15:06;5.95;;;4.72;;
18544;SDS011;9402;51.460;7.276;2024-02-26T08:17:08;6.78;;;5.75;;
18544;SDS011;9402;51.460;7.276;2024-02-26T08:19:11;5.35;;;4.85;;
18544;SDS011;9402;51.460;7.276;2024-02-26T08:21:15;10.88;;;6.15;;
18544;SDS011;9402;51.460;7.276;2024-02-26T08:23:17;11.00;;;6.05;;
18544;SDS011;9402;51.460;7.276;2024-02-26T08:25:17;6.88;;;5.95;;
18544;SDS011;9402;51.460;7.276;2024-02-26T08:27:19;13.52;;;7.10;;
18544;SDS011;9402;51.460;7.276;2024-02-26T08:29:19;10.43;;;7.67;;
18544;SDS011;9402;51.460;7.276;2024-02-26T08:31:21;8.95;;;7.10;;
18544;SDS011;9402;51.460;7.276;2024-02-26T08:33:23;11.48;;;7.20;;
18544;SDS011;9402;51.460;7.276;2024-02-26T08:35:26;9.88;;;7.90;;
18544;SDS011;9402;51.460;7.276;2024-02-26T08:37:28;8.18;;;7.10;;
18544;SDS011;9402;51.460;7.276;2024-02-26T08:39:29;10.27;;;7.63;;
18544;SDS011;9402;51.460;7.276;2024-02-26T08:41:31;9.05;;;6.53;;
18544;SDS011;9402;51.460;7.276;2024-02-26T08:43:32;9.43;;;7.30;;
18544;SDS011;9402;51.460;7.276;2024-02-26T08:45:34;10.98;;;7.95;;
18544;SDS011;9402;51.460;7.276;2024-02-26T08:47:35;13.68;;;7.90;;
18544;SDS011;9402;51.460;7.276;2024-02-26T08:49:37;10.45;;;7.15;;
18544;SDS011;9402;51.460;7.276;2024-02-26T08:51:45;11.65;;;7.47;;
18544;SDS011;9402;51.460;7.276;2024-02-26T08:53:46;8.27;;;7.20;;
18544;SDS011;9402;51.460;7.276;2024-02-26T08:55:47;11.90;;;7.43;;
18544;SDS011;9402;51.460;7.276;2024-02-26T08:57:49;9.80;;;6.43;;
18544;SDS011;9402;51.460;7.276;2024-02-26T08:59:50;8.88;;;6.45;;
18544;SDS011;9402;51.460;7.276;2024-02-26T09:01:52;10.38;;;6.03;;
18544;SDS011;9402;51.460;7.276;2024-02-26T09:03:53;9.25;;;7.13;;
18544;SDS011;9402;51.460;7.276;2024-02-26T09:05:56;10.55;;;7.10;;
18544;SDS011;9402;51.460;7.276;2024-02-26T09:07:59;9.68;;;7.18;;
18544;SDS011;9402;51.460;7.276;2024-02-26T09:10:01;8.70;;;6.63;;
18544;SDS011;9402;51.460;7.276;2024-02-26T09:12:03;15.68;;;6.85;;
18544;SDS011;9402;51.460;7.276;2024-02-26T09:14:05;8.45;;;5.75;;
18544;SDS011;9402;51.460;7.276;2024-02-26T09:16:07;10.52;;;7.00;;
18544;SDS011;9402;51.460;7.276;2024-02-26T09:18:08;8.85;;;7.07;;
18544;SDS011;9402;51.460;7.276;2024-02-26T09:20:10;8.63;;;5.80;;
18544;SDS011;9402;51.460;7.276;2024-02-26T09:22:13;8.52;;;5.68;;
18544;SDS011;9402;51.460;7.276;2024-02-26T09:24:16;12.00;;;7.80;;
18544;SDS011;9402;51.460;7.276;2024-02-26T09:26:18;9.60;;;5.95;;
18544;SDS011;9402;51.460;7.276;2024-02-26T09:28:20;11.30;;;8.10;;
18544;SDS011;9402;51.460;7.276;2024-02-26T09:30:21;9.40;;;7.03;;
18544;SDS011;9402;51.460;7.276;2024-02-26T09:32:23;14.35;;;9.77;;
18544;SDS011;9402;51.460;7.276;2024-02-26T09:34:25;15.27;;;8.70;;
18544;SDS011;9402;51.460;7.276;2024-02-26T09:36:26;17.23;;;9.45;;
18544;SDS011;9402;51.460;7.276;2024-02-26T09:38:28;15.02;;;8.40;;
18544;SDS011;9402;51.460;7.276;2024-02-26T09:40:32;17.02;;;8.43;;
18544;SDS011;9402;51.460;7.276;2024-02-26T09:42:33;14.00;;;9.68;;
18544;SDS011;9402;51.460;7.276;2024-02-26T09:44:36;16.77;;;9.55;;
18544;SDS011;9402;51.460;7.276;2024-02-26T09:46:40;18.92;;;10.60;;
18544;SDS011;9402;51.460;7.276;2024-02-26T09:48:42;14.45;;;9.98;;
18544;SDS011;9402;51.460;7.276;2024-02-26T09:50:43;10.93;;;8.55;;
18544;SDS011;9402;51.460;7.276;2024-02-26T09:52:44;11.10;;;8.80;;
18544;SDS011;9402;51.460;7.276;2024-02-26T09:54:46;13.77;;;9.53;;
18544;SDS011;9402;51.460;7.276;2024-02-26T09:56:49;21.52;;;10.85;;
18544;SDS011;9402;51.460;7.276;2024-02-26T09:58:54;22.35;;;11.35;;
18544;SDS011;9402;51.460;7.276;2024-02-26T10:00:57;18.40;;;11.50;;
18544;SDS011;9402;51.460;7.276;2024-02-26T10:02:59;25.70;;;10.63;;
18544;SDS011;9402;51.460;7.276;2024-02-26T10:05:04;18.00;;;12.52;;
18544;SDS011;9402;51.460;7.276;2024-02-26T10:07:07;18.52;;;11.60;;
18544;SDS011;9402;51.460;7.276;2024-02-26T10:09:11;16.70;;;11.80;;
18544;SDS011;9402;51.460;7.276;2024-02-26T10:11:16;18.05;;;10.02;;
18544;SDS011;9402;51.460;7.276;2024-02-26T10:13:19;17.25;;;10.35;;
18544;SDS011;9402;51.460;7.276;2024-02-26T10:15:21;16.95;;;10.90;;
18544;SDS011;9402;51.460;7.276;2024-02-26T10:17:22;15.77;;;8.38;;
18544;SDS011;9402;51.460;7.276;2024-02-26T10:19:26;19.43;;;10.63;;
18544;SDS011;9402;51.460;7.276;2024-02-26T10:21:28;15.45;;;9.75;;
18544;SDS011;9402;51.460;7.276;2024-02-26T10:23:29;20.45;;;10.25;;
18544;SDS011;9402;51.460;7.276;2024-02-26T10:25:31;20.10;;;10.20;;
18544;SDS011;9402;51.460;7.276;2024-02-26T10:27:32;11.57;;;8.50;;
18544;SDS011;9402;51.460;7.276;2024-02-26T10:29:35;11.63;;;7.70;;
18544;SDS011;9402;51.460;7.276;2024-02-26T10:31:36;11.95;;;7.25;;
18544;SDS011;9402;51.460;7.276;2024-02-26T10:33:38;10.32;;;7.70;;
18544;SDS011;9402;51.460;7.276;2024-02-26T10:35:45;11.80;;;8.55;;
18544;SDS011;9402;51.460;7.276;2024-02-26T10:37:47;15.45;;;9.00;;
18544;SDS011;9402;51.460;7.276;2024-02-26T10:39:50;12.02;;;6.28;;
18544;SDS011;9402;51.460;7.276;2024-02-26T10:41:52;12.73;;;7.30;;
18544;SDS011;9402;51.460;7.276;2024-02-26T10:43:53;14.57;;;9.05;;
18544;SDS011;9402;51.460;7.276;2024-02-26T10:45:57;8.95;;;7.35;;
18544;SDS011;9402;51.460;7.276;2024-02-26T10:47:59;12.18;;;7.80;;
18544;SDS011;9402;51.460;7.276;2024-02-26T10:50:01;18.90;;;10.15;;
18544;SDS011;9402;51.460;7.276;2024-02-26T10:52:04;14.00;;;9.45;;
18544;SDS011;9402;51.460;7.276;2024-02-26T10:54:06;14.25;;;8.45;;
18544;SDS011;9402;51.460;7.276;2024-02-26T10:56:10;18.17;;;11.73;;
18544;SDS011;9402;51.460;7.276;2024-02-26T10:58:13;20.52;;;11.55;;
18544;SDS011;9402;51.460;7.276;2024-02-26T11:00:15;14.27;;;10.10;;
18544;SDS011;9402;51.460;7.276;2024-02-26T11:02:18;14.45;;;9.63;;
18544;SDS011;9402;51.460;7.276;2024-02-26T11:04:20;23.58;;;11.35;;
18544;SDS011;9402;51.460;7.276;2024-02-26T11:06:23;19.05;;;12.90;;
18544;SDS011;9402;51.460;7.276;2024-02-26T11:08:24;17.63;;;11.13;;
18544;SDS011;9402;51.460;7.276;2024-02-26T11:10:27;22.10;;;12.88;;
18544;SDS011;9402;51.460;7.276;2024-02-26T11:12:31;14.40;;;9.60;;
18544;SDS011;9402;51.460;7.276;2024-02-26T11:14:35;21.88;;;12.43;;
18544;SDS011;9402;51.460;7.276;2024-02-26T11:16:36;21.90;;;12.90;;
18544;SDS011;9402;51.460;7.276;2024-02-26T11:18:40;24.80;;;14.35;;
18544;SDS011;9402;51.460;7.276;2024-02-26T11:20:43;32.17;;;13.98;;
18544;SDS011;9402;51.460;7.276;2024-02-26T11:22:45;24.63;;;13.05;;
18544;SDS011;9402;51.460;7.276;2024-02-26T11:24:47;24.73;;;13.75;;
18544;SDS011;9402;51.460;7.276;2024-02-26T11:26:49;24.90;;;14.43;;
18544;SDS011;9402;51.460;7.276;2024-02-26T11:28:58;35.80;;;17.08;;
18544;SDS011;9402;51.460;7.276;2024-02-26T11:31:00;24.85;;;14.90;;
18544;SDS011;9402;51.460;7.276;2024-02-26T11:33:03;25.77;;;13.80;;
18544;SDS011;9402;51.460;7.276;2024-02-26T11:35:06;21.80;;;11.90;;
18544;SDS011;9402;51.460;7.276;2024-02-26T11:37:10;18.08;;;10.18;;
18544;SDS011;9402;51.460;7.276;2024-02-26T11:39:12;15.15;;;7.45;;
18544;SDS011;9402;51.460;7.276;2024-02-26T11:41:16;10.93;;;8.38;;
18544;SDS011;9402;51.460;7.276;2024-02-26T11:43:21;11.32;;;7.90;;
18544;SDS011;9402;51.460;7.276;2024-02-26T11:47:55;8.88;;;6.82;;
18544;SDS011;9402;51.460;7.276;2024-02-26T11:49:57;7.35;;;6.65;;
18544;SDS011;9402;51.460;7.276;2024-02-26T11:52:00;9.32;;;7.13;;
18544;SDS011;9402;51.460;7.276;2024-02-26T11:54:07;9.98;;;6.80;;
18544;SDS011;9402;51.460;7.276;2024-02-26T11:56:21;9.25;;;6.55;;
18544;SDS011;9402;51.460;7.276;2024-02-26T11:58:27;11.60;;;6.65;;
18544;SDS011;9402;51.460;7.276;2024-02-26T12:00:32;7.57;;;6.00;;
18544;SDS011;9402;51.460;7.276;2024-02-26T12:02:38;7.80;;;6.10;;
18544;SDS011;9402;51.460;7.276;2024-02-26T12:04:39;8.40;;;6.15;;
18544;SDS011;9402;51.460;7.276;2024-02-26T12:06:42;9.50;;;7.10;;
18544;SDS011;9402;51.460;7.276;2024-02-26T12:08:45;9.77;;;7.40;;
18544;SDS011;9402;51.460;7.276;2024-02-26T12:10:47;8.77;;;7.35;;
18544;SDS011;9402;51.460;7.276;2024-02-26T12:12:49;9.88;;;7.43;;
18544;SDS011;9402;51.460;7.276;2024-02-26T12:14:51;11.13;;;7.68;;
18544;SDS011;9402;51.460;7.276;2024-02-26T12:16:52;12.35;;;8.27;;
18544;SDS011;9402;51.460;7.276;2024-02-26T12:18:54;12.27;;;7.97;;
18544;SDS011;9402;51.460;7.276;2024-02-26T12:20:59;11.73;;;8.20;;
18544;SDS011;9402;51.460;7.276;2024-02-26T12:23:02;10.30;;;8.13;;
18544;SDS011;9402;51.460;7.276;2024-02-26T12:25:06;12.50;;;8.80;;